Time;durP1;ratioP1;P1;durP2;ratioP2;P2;SDS_P1;SDS_P2;PMS_P1;PMS_P2;Temp;Humidity;BMP_temperature;BMP_pressure;BME280_temperature;BME280_humidity;BME280_pressure;Samples;Min_cycle;Max_cycle;Signal;HPM_P1;HPM_P2
2021/09/05 00:02:17;;;;;;;6.70;3.87;;;;;;;;;;1871478;77;21083;-46
2021/09/05 00:04:46;;;;;;;6.60;3.72;;;;;;;;;;1871436;77;21110;-47
2021/09/05 00:07:15;;;;;;;6.33;4.22;;;;;;;;;;1871461;77;21040;-48
2021/09/05 00:09:44;;;;;;;7.00;3.80;;;;;;;;;;1871333;76;21097;-50
2021/09/05 00:12:13;;;;;;;5.15;3.90;;;;;;;;;;1871441;77;21124;-47
2021/09/05 00:14:42;;;;;;;5.28;3.85;;;;;;;;;;1871384;76;21118;-50
2021/09/05 00:17:11;;;;;;;5.72;4.25;;;;;;;;;;1871451;77;21055;-48
2021/09/05 00:19:39;;;;;;;4.75;4.25;;;;;;;;;;1871331;77;21098;-47
2021/09/05 00:22:08;;;;;;;5.65;4.42;;;;;;;;;;1871449;77;21035;-46
2021/09/05 00:24:37;;;;;;;5.30;4.80;;;;;;;;;;1871347;77;21043;-50
2021/09/05 00:27:06;;;;;;;5.05;3.50;;;;;;;;;;1871324;76;21109;-49
2021/09/05 00:29:35;;;;;;;4.08;3.67;;;;;;;;;;1871310;77;21043;-48
2021/09/05 00:32:04;;;;;;;3.87;3.20;;;;;;;;;;1877640;76;21062;-46
2021/09/05 00:34:33;;;;;;;5.50;3.20;;;;;;;;;;1890122;76;21101;-46
2021/09/05 00:37:02;;;;;;;3.85;2.98;;;;;;;;;;1890185;76;21100;-47
2021/09/05 00:39:31;;;;;;;5.67;3.47;;;;;;;;;;1890250;76;21026;-49
2021/09/05 00:42:00;;;;;;;3.45;2.72;;;;;;;;;;1890019;76;21034;-49
2021/09/05 00:44:29;;;;;;;6.22;2.62;;;;;;;;;;1890021;76;21066;-46
2021/09/05 00:46:57;;;;;;;4.35;2.62;;;;;;;;;;1890031;76;21140;-47
2021/09/05 00:49:27;;;;;;;3.40;2.30;;;;;;;;;;1890003;76;21120;-47
2021/09/05 00:51:56;;;;;;;3.80;1.95;;;;;;;;;;1889971;76;21042;-45
2021/09/05 00:54:24;;;;;;;3.00;2.70;;;;;;;;;;1889985;76;21109;-47
2021/09/05 00:56:53;;;;;;;2.72;2.20;;;;;;;;;;1890003;76;21039;-49
2021/09/05 00:59:24;;;;;;;4.92;2.00;;;;;;;;;;1890009;75;21050;-48
2021/09/05 01:01:54;;;;;;;2.42;1.70;;;;;;;;;;1890285;76;21430;-46
2021/09/05 01:04:23;;;;;;;2.58;1.72;;;;;;;;;;1889932;76;21042;-49
2021/09/05 01:06:53;;;;;;;1.70;1.60;;;;;;;;;;1890026;76;21039;-46
2021/09/05 01:09:22;;;;;;;2.40;1.45;;;;;;;;;;1890084;76;21038;-49
2021/09/05 01:11:51;;;;;;;4.08;1.50;;;;;;;;;;1890106;76;21039;-50
2021/09/05 01:14:20;;;;;;;2.77;1.85;;;;;;;;;;1890194;76;21441;-49
2021/09/05 01:16:49;;;;;;;3.25;1.85;;;;;;;;;;1890082;76;21027;-49
2021/09/05 01:19:29;;;;;;;2.50;1.80;;;;;;;;;;1881688;75;21045;-48
2021/09/05 01:22:02;;;;;;;2.92;1.70;;;;;;;;;;1875713;75;21038;-48
2021/09/05 01:24:35;;;;;;;2.00;1.80;;;;;;;;;;1875637;75;21050;-45
2021/09/05 01:27:15;;;;;;;2.95;2.12;;;;;;;;;;1865995;77;21131;-49
2021/09/05 01:29:48;;;;;;;2.27;1.80;;;;;;;;;;1886765;76;21114;-46
2021/09/05 01:32:35;;;;;;;1.90;1.70;;;;;;;;;;1889916;75;21128;-48
2021/09/05 01:35:06;;;;;;;1.95;1.62;;;;;;;;;;1886590;75;21096;-49
2021/09/05 01:37:42;;;;;;;2.92;1.60;;;;;;;;;;1877603;75;21040;-47
2021/09/05 01:40:24;;;;;;;3.33;1.85;;;;;;;;;;1890726;75;21059;-49
2021/09/05 01:43:11;;;;;;;5.08;1.80;;;;;;;;;;1890027;76;21552;-47
2021/09/05 01:45:50;;;;;;;4.65;1.70;;;;;;;;;;1865773;77;21066;-49
2021/09/05 01:48:27;;;;;;;2.22;1.50;;;;;;;;;;1864535;75;21145;-48
2021/09/05 01:51:13;;;;;;;2.40;1.65;;;;;;;;;;1890189;75;21077;-50
2021/09/05 01:54:00;;;;;;;4.50;1.50;;;;;;;;;;1889990;76;21090;-46
2021/09/05 01:56:31;;;;;;;2.62;1.50;;;;;;;;;;1890903;75;21136;-47
2021/09/05 01:59:01;;;;;;;3.85;2.17;;;;;;;;;;1874457;75;21018;-48
2021/09/05 02:01:48;;;;;;;2.83;1.50;;;;;;;;;;1890008;76;21127;-49
2021/09/05 02:04:21;;;;;;;3.55;1.40;;;;;;;;;;1890297;75;21075;-46
2021/09/05 02:07:08;;;;;;;2.98;1.47;;;;;;;;;;1889994;76;21375;-49
2021/09/05 02:09:38;;;;;;;1.80;1.15;;;;;;;;;;1890604;75;21125;-46
2021/09/05 02:12:08;;;;;;;3.20;1.67;;;;;;;;;;1882768;75;21033;-46
2021/09/05 02:14:48;;;;;;;1.70;1.30;;;;;;;;;;1890358;75;21203;-47
2021/09/05 02:17:21;;;;;;;2.10;1.80;;;;;;;;;;1875557;75;21491;-47
2021/09/05 02:19:57;;;;;;;2.17;1.40;;;;;;;;;;1885567;75;21050;-48
2021/09/05 02:22:30;;;;;;;1.90;1.50;;;;;;;;;;1888164;75;21116;-47
2021/09/05 02:25:04;;;;;;;2.17;1.40;;;;;;;;;;1890393;75;21082;-50
2021/09/05 02:27:51;;;;;;;1.62;1.20;;;;;;;;;;1889958;76;21064;-49
2021/09/05 02:30:21;;;;;;;3.08;1.27;;;;;;;;;;1890149;75;21050;-47
2021/09/05 02:32:52;;;;;;;2.72;1.67;;;;;;;;;;1886590;75;21128;-47
2021/09/05 02:35:28;;;;;;;2.22;1.35;;;;;;;;;;1890547;75;21126;-46
2021/09/05 02:38:08;;;;;;;1.92;1.25;;;;;;;;;;1865852;77;21144;-48
2021/09/05 02:40:38;;;;;;;2.47;1.47;;;;;;;;;;1887920;75;21085;-48
2021/09/05 02:43:08;;;;;;;3.62;1.67;;;;;;;;;;1890408;75;21349;-47
2021/09/05 02:45:55;;;;;;;2.75;1.45;;;;;;;;;;1889994;76;21563;-48
2021/09/05 02:48:42;;;;;;;1.55;1.42;;;;;;;;;;1889991;76;21075;-49
2021/09/05 02:51:12;;;;;;;2.90;1.70;;;;;;;;;;1886488;75;21038;-48
2021/09/05 02:53:43;;;;;;;2.25;1.50;;;;;;;;;;1889869;76;21044;-50
2021/09/05 02:56:30;;;;;;;4.47;1.37;;;;;;;;;;1889918;76;21055;-47
2021/09/05 02:59:06;;;;;;;3.08;1.67;;;;;;;;;;1890626;75;21046;-47
2021/09/05 03:01:39;;;;;;;3.22;1.52;;;;;;;;;;1875583;75;21493;-46
2021/09/05 03:04:12;;;;;;;3.37;1.60;;;;;;;;;;1883540;75;21078;-46
2021/09/05 03:06:43;;;;;;;3.92;1.42;;;;;;;;;;1886791;75;21124;-46
2021/09/05 03:09:16;;;;;;;2.62;1.45;;;;;;;;;;1875594;75;21046;-47
2021/09/05 03:12:03;;;;;;;2.35;1.65;;;;;;;;;;1889893;76;21038;-50
2021/09/05 03:14:42;;;;;;;1.92;1.55;;;;;;;;;;1890285;75;21158;-50
2021/09/05 03:17:31;;;;;;;2.42;1.55;;;;;;;;;;1865692;77;21066;-47
2021/09/05 03:20:08;;;;;;;6.53;1.55;;;;;;;;;;1868972;75;21184;-48
2021/09/05 03:22:54;;;;;;;5.97;1.60;;;;;;;;;;1878833;75;21108;-47
2021/09/05 03:25:25;;;;;;;4.28;1.50;;;;;;;;;;1874426;75;21046;-49
2021/09/05 03:27:55;;;;;;;8.58;1.80;;;;;;;;;;1890778;75;21639;-47
2021/09/05 03:30:38;;;;;;;46.73;28.98;;;;;;;;;;1890428;75;21071;-50
2021/09/05 03:33:11;;;;;;;6.08;2.12;;;;;;;;;;1851446;75;21129;-47
2021/09/05 03:35:45;;;;;;;2.50;2.08;;;;;;;;;;1867338;76;21039;-48
2021/09/05 03:38:33;;;;;;;3.02;1.45;;;;;;;;;;1856362;77;21062;-48
2021/09/05 03:41:12;;;;;;;2.67;1.62;;;;;;;;;;1856312;77;21113;-46
2021/09/05 03:43:46;;;;;;;3.12;1.55;;;;;;;;;;1844245;76;21043;-50
2021/09/05 03:46:31;;;;;;;2.92;1.50;;;;;;;;;;1873057;76;21076;-48
2021/09/05 03:49:18;;;;;;;4.65;1.60;;;;;;;;;;1871338;75;21506;-47
2021/09/05 03:51:47;;;;;;;2.22;1.82;;;;;;;;;;1871436;75;21039;-47
2021/09/05 03:54:18;;;;;;;1.95;1.45;;;;;;;;;;1871417;76;21068;-47
2021/09/05 03:56:48;;;;;;;4.80;1.45;;;;;;;;;;1871451;77;21089;-49
2021/09/05 03:59:17;;;;;;;2.75;1.60;;;;;;;;;;1871501;76;21051;-46
2021/09/05 04:01:46;;;;;;;3.17;1.92;;;;;;;;;;1871426;75;21039;-47
2021/09/05 04:04:23;;;;;;;2.37;1.50;;;;;;;;;;1871345;76;21150;-47
2021/09/05 04:07:01;;;;;;;4.45;1.72;;;;;;;;;;1871324;76;21016;-47
2021/09/05 04:12:09;;;;;;;4.17;1.37;;;;;;;;;;1871464;77;21149;-49
2021/09/05 04:14:37;;;;;;;13.38;2.95;;;;;;;;;;1871420;77;21016;-46
2021/09/05 04:17:06;;;;;;;3.55;2.17;;;;;;;;;;1871323;75;21098;-47
2021/09/05 04:19:35;;;;;;;1.92;1.67;;;;;;;;;;1871295;77;21043;-48
2021/09/05 04:22:04;;;;;;;2.75;1.72;;;;;;;;;;1871350;77;21036;-46
2021/09/05 04:24:33;;;;;;;2.67;1.45;;;;;;;;;;1871445;77;21093;-49
2021/09/05 04:27:02;;;;;;;1.90;1.50;;;;;;;;;;1871392;75;21126;-46
2021/09/05 04:29:31;;;;;;;4.60;1.62;;;;;;;;;;1871381;77;21020;-49
2021/09/05 04:32:00;;;;;;;2.95;1.65;;;;;;;;;;1871449;77;21059;-48
2021/09/05 04:34:29;;;;;;;3.08;1.50;;;;;;;;;;1883372;76;21082;-46
2021/09/05 04:36:59;;;;;;;2.67;1.27;;;;;;;;;;1890129;76;21042;-47
2021/09/05 04:39:27;;;;;;;4.75;2.75;;;;;;;;;;1890119;76;21100;-46
2021/09/05 04:41:56;;;;;;;4.37;1.50;;;;;;;;;;1889985;76;21030;-46
2021/09/05 04:44:25;;;;;;;3.27;1.62;;;;;;;;;;1889964;76;21084;-48
2021/09/05 04:46:54;;;;;;;10.50;1.85;;;;;;;;;;1889977;76;21092;-48
2021/09/05 04:49:22;;;;;;;11.00;7.12;;;;;;;;;;1889973;76;21027;-48
2021/09/05 04:51:51;;;;;;;3.67;1.70;;;;;;;;;;1889996;76;21096;-47
2021/09/05 04:54:20;;;;;;;2.35;1.80;;;;;;;;;;1889930;76;21109;-48
2021/09/05 04:56:48;;;;;;;12.73;2.95;;;;;;;;;;1889913;76;21043;-47
2021/09/05 04:59:17;;;;;;;2.55;2.10;;;;;;;;;;1890097;76;21016;-47
2021/09/05 05:01:46;;;;;;;4.90;1.70;;;;;;;;;;1889910;76;21046;-48
2021/09/05 05:04:15;;;;;;;4.45;2.20;;;;;;;;;;1889969;76;21054;-48
2021/09/05 05:06:44;;;;;;;4.70;1.95;;;;;;;;;;1889949;76;21015;-46
2021/09/05 05:09:14;;;;;;;3.12;1.90;;;;;;;;;;1889971;76;21015;-48
2021/09/05 05:11:43;;;;;;;20.85;3.65;;;;;;;;;;1890057;76;21100;-46
2021/09/05 05:14:12;;;;;;;5.05;1.95;;;;;;;;;;1890028;76;21450;-48
2021/09/05 05:16:41;;;;;;;6.37;2.52;;;;;;;;;;1889939;76;21015;-47
2021/09/05 05:19:10;;;;;;;8.30;2.50;;;;;;;;;;1889957;76;21062;-49
2021/09/05 05:21:39;;;;;;;7.85;3.55;;;;;;;;;;1889909;76;21050;-48
2021/09/05 05:24:08;;;;;;;3.90;2.98;;;;;;;;;;1889933;76;21019;-48
2021/09/05 05:26:37;;;;;;;7.33;2.40;;;;;;;;;;1889979;76;21018;-49
2021/09/05 05:29:06;;;;;;;5.22;1.80;;;;;;;;;;1889993;76;21108;-47
2021/09/05 05:31:34;;;;;;;3.62;1.70;;;;;;;;;;1889984;76;21034;-46
2021/09/05 05:34:03;;;;;;;4.30;1.40;;;;;;;;;;1889911;76;21058;-48
2021/09/05 05:36:33;;;;;;;9.75;4.25;;;;;;;;;;1890012;76;21046;-46
2021/09/05 05:39:02;;;;;;;7.10;2.02;;;;;;;;;;1889944;76;21042;-46
2021/09/05 05:41:31;;;;;;;4.17;1.40;;;;;;;;;;1889965;76;21042;-46
2021/09/05 05:44:00;;;;;;;5.30;1.30;;;;;;;;;;1890093;76;21039;-46
2021/09/05 05:46:29;;;;;;;2.83;1.47;;;;;;;;;;1890037;76;21055;-46
2021/09/05 05:48:58;;;;;;;17.32;2.83;;;;;;;;;;1890086;76;21034;-49
2021/09/05 05:51:27;;;;;;;3.60;1.30;;;;;;;;;;1889907;76;21038;-47
2021/09/05 05:53:55;;;;;;;3.00;1.87;;;;;;;;;;1890017;76;21017;-47
2021/09/05 05:56:24;;;;;;;2.62;1.87;;;;;;;;;;1889952;76;21042;-48
2021/09/05 05:58:53;;;;;;;5.70;1.80;;;;;;;;;;1890061;76;21035;-49
2021/09/05 06:01:23;;;;;;;5.20;2.25;;;;;;;;;;1889940;76;21096;-46
2021/09/05 06:03:53;;;;;;;1.50;1.15;;;;;;;;;;1889858;75;21049;-48
2021/09/05 06:06:22;;;;;;;2.98;1.65;;;;;;;;;;1889930;76;21039;-49
2021/09/05 06:08:51;;;;;;;3.10;1.52;;;;;;;;;;1890042;76;21054;-48
2021/09/05 06:11:20;;;;;;;1.82;1.00;;;;;;;;;;1889951;76;21089;-50
2021/09/05 06:13:49;;;;;;;2.35;1.50;;;;;;;;;;1889984;76;21051;-47
2021/09/05 06:16:18;;;;;;;3.65;1.30;;;;;;;;;;1889935;76;21034;-45
2021/09/05 06:18:47;;;;;;;4.53;1.47;;;;;;;;;;1890048;76;21035;-47
2021/09/05 06:21:16;;;;;;;2.22;1.27;;;;;;;;;;1890083;76;21096;-49
2021/09/05 06:23:44;;;;;;;4.50;2.10;;;;;;;;;;1889982;76;21092;-50
2021/09/05 06:26:13;;;;;;;11.35;5.08;;;;;;;;;;1889862;76;21096;-48
2021/09/05 06:28:42;;;;;;;8.58;3.90;;;;;;;;;;1890086;76;21108;-49
2021/09/05 06:31:11;;;;;;;7.60;3.40;;;;;;;;;;1889992;76;21047;-49
2021/09/05 06:33:40;;;;;;;25.72;9.00;;;;;;;;;;1889977;76;21082;-49
2021/09/05 06:36:08;;;;;;;25.82;10.82;;;;;;;;;;1872055;75;21063;-50
2021/09/05 06:38:37;;;;;;;13.32;6.72;;;;;;;;;;1871193;77;21027;-50
2021/09/05 06:41:06;;;;;;;16.60;6.92;;;;;;;;;;1871340;77;21059;-48
2021/09/05 06:43:35;;;;;;;17.10;8.30;;;;;;;;;;1871222;77;21043;-49
2021/09/05 06:46:05;;;;;;;19.37;9.53;;;;;;;;;;1871128;77;21031;-46
2021/09/05 06:48:34;;;;;;;23.05;10.28;;;;;;;;;;1871132;76;21101;-47
2021/09/05 06:51:03;;;;;;;17.05;7.45;;;;;;;;;;1871342;77;21043;-49
2021/09/05 06:53:32;;;;;;;15.95;7.08;;;;;;;;;;1871188;77;21109;-50
2021/09/05 06:56:01;;;;;;;11.30;5.42;;;;;;;;;;1871189;77;21047;-48
2021/09/05 06:58:30;;;;;;;14.47;6.65;;;;;;;;;;1871121;77;21145;-49
2021/09/05 07:01:00;;;;;;;12.20;5.70;;;;;;;;;;1871128;76;21043;-51
2021/09/05 07:03:28;;;;;;;12.90;5.83;;;;;;;;;;1871339;77;21105;-48
2021/09/05 07:05:57;;;;;;;10.32;5.60;;;;;;;;;;1871540;77;21031;-51
2021/09/05 07:08:26;;;;;;;14.78;5.67;;;;;;;;;;1871465;75;21108;-48
2021/09/05 07:10:55;;;;;;;10.70;5.70;;;;;;;;;;1871356;77;21105;-49
2021/09/05 07:13:24;;;;;;;11.15;4.90;;;;;;;;;;1871409;77;21028;-49
2021/09/05 07:15:53;;;;;;;10.43;5.22;;;;;;;;;;1871546;77;21016;-49
2021/09/05 07:18:24;;;;;;;11.60;5.15;;;;;;;;;;1871404;75;21103;-50
2021/09/05 07:20:53;;;;;;;8.50;4.20;;;;;;;;;;1871431;75;21036;-50
2021/09/05 07:23:22;;;;;;;9.58;5.15;;;;;;;;;;1871326;77;21093;-47
2021/09/05 07:25:51;;;;;;;6.05;4.05;;;;;;;;;;1871272;77;21044;-49
2021/09/05 07:28:20;;;;;;;10.65;5.00;;;;;;;;;;1871195;77;21099;-48
2021/09/05 07:30:49;;;;;;;6.35;4.00;;;;;;;;;;1871274;75;21020;-46
2021/09/05 07:33:18;;;;;;;5.87;4.10;;;;;;;;;;1871357;75;21082;-50
2021/09/05 07:35:47;;;;;;;5.70;3.87;;;;;;;;;;1871353;76;21035;-50
2021/09/05 07:38:15;;;;;;;7.70;4.03;;;;;;;;;;1871382;77;21031;-49
2021/09/05 07:40:44;;;;;;;8.85;4.50;;;;;;;;;;1871311;77;21000;-47
2021/09/05 07:43:13;;;;;;;6.47;4.78;;;;;;;;;;1871309;77;21031;-51
2021/09/05 07:45:42;;;;;;;7.37;4.25;;;;;;;;;;1871284;75;21048;-47
2021/09/05 07:48:10;;;;;;;7.12;4.58;;;;;;;;;;1871430;75;21083;-50
2021/09/05 07:50:39;;;;;;;6.30;4.87;;;;;;;;;;1871315;77;21102;-50
2021/09/05 07:53:08;;;;;;;9.70;5.03;;;;;;;;;;1871355;76;21110;-50
2021/09/05 07:55:37;;;;;;;8.95;5.33;;;;;;;;;;1871337;77;21105;-49
2021/09/05 07:58:06;;;;;;;11.45;5.78;;;;;;;;;;1871271;76;21043;-49
2021/09/05 08:00:34;;;;;;;6.67;4.83;;;;;;;;;;1871353;77;21043;-49
2021/09/05 08:03:03;;;;;;;9.03;4.70;;;;;;;;;;1871290;77;21106;-48
2021/09/05 08:05:32;;;;;;;10.00;4.65;;;;;;;;;;1871270;77;21039;-49
2021/09/05 08:08:01;;;;;;;12.85;6.03;;;;;;;;;;1871138;77;21048;-50
2021/09/05 08:10:30;;;;;;;10.45;4.70;;;;;;;;;;1871285;76;21086;-49
2021/09/05 08:12:59;;;;;;;6.75;4.65;;;;;;;;;;1871338;76;21110;-49
2021/09/05 08:15:28;;;;;;;8.18;4.87;;;;;;;;;;1871415;77;21105;-50
2021/09/05 08:17:57;;;;;;;7.70;4.37;;;;;;;;;;1871379;77;21149;-48
2021/09/05 08:20:26;;;;;;;6.33;4.58;;;;;;;;;;1871401;77;21043;-48
2021/09/05 08:22:54;;;;;;;7.45;4.47;;;;;;;;;;1871340;75;21121;-50
2021/09/05 08:25:23;;;;;;;8.58;4.40;;;;;;;;;;1871491;76;21040;-50
2021/09/05 08:27:52;;;;;;;5.62;4.30;;;;;;;;;;1871261;77;21043;-48
2021/09/05 08:30:21;;;;;;;6.08;4.25;;;;;;;;;;1871286;77;21101;-49
2021/09/05 08:32:49;;;;;;;8.43;5.37;;;;;;;;;;1871413;77;21044;-49
2021/09/05 08:35:19;;;;;;;13.43;5.15;;;;;;;;;;1875944;75;21063;-47
2021/09/05 08:37:48;;;;;;;6.42;4.00;;;;;;;;;;1890088;76;21101;-50
2021/09/05 08:40:17;;;;;;;5.90;3.65;;;;;;;;;;1890110;76;21019;-47
2021/09/05 08:42:45;;;;;;;7.30;3.75;;;;;;;;;;1890202;76;21015;-50
2021/09/05 08:45:14;;;;;;;8.25;4.50;;;;;;;;;;1890097;76;21097;-48
2021/09/05 08:47:43;;;;;;;7.15;4.50;;;;;;;;;;1889924;76;21027;-48
2021/09/05 08:50:12;;;;;;;9.13;4.62;;;;;;;;;;1889984;76;21485;-46
2021/09/05 08:52:41;;;;;;;7.10;4.00;;;;;;;;;;1890012;76;21022;-48
2021/09/05 08:55:10;;;;;;;7.20;4.28;;;;;;;;;;1890167;76;21075;-49
2021/09/05 08:57:39;;;;;;;7.42;4.45;;;;;;;;;;1890042;76;21048;-47
2021/09/05 09:00:08;;;;;;;7.05;4.28;;;;;;;;;;1890243;76;21002;-50
2021/09/05 09:02:44;;;;;;;5.72;5.03;;;;;;;;;;1890122;76;21026;-47
2021/09/05 09:05:13;;;;;;;9.33;4.80;;;;;;;;;;1890157;76;21003;-50
2021/09/05 09:07:45;;;;;;;8.43;5.00;;;;;;;;;;1889977;76;21036;-51
2021/09/05 09:10:15;;;;;;;7.00;4.70;;;;;;;;;;1890015;76;21104;-48
2021/09/05 09:12:46;;;;;;;9.15;4.30;;;;;;;;;;1890092;76;21034;-50
2021/09/05 09:15:18;;;;;;;5.95;4.50;;;;;;;;;;1889883;76;21462;-49
2021/09/05 09:17:48;;;;;;;7.40;5.00;;;;;;;;;;1889981;76;21081;-47
2021/09/05 09:20:18;;;;;;;9.93;5.42;;;;;;;;;;1889587;75;21047;-49
2021/09/05 09:22:48;;;;;;;10.48;4.72;;;;;;;;;;1873840;75;21018;-46
2021/09/05 09:25:17;;;;;;;10.05;5.90;;;;;;;;;;1887851;75;21030;-48
2021/09/05 09:27:46;;;;;;;9.30;5.35;;;;;;;;;;1889990;76;21035;-50
2021/09/05 09:30:15;;;;;;;9.08;5.05;;;;;;;;;;1890109;76;21043;-49
2021/09/05 09:32:45;;;;;;;8.20;5.08;;;;;;;;;;1889936;76;21043;-48
2021/09/05 09:35:14;;;;;;;9.45;5.33;;;;;;;;;;1888778;75;21007;-48
2021/09/05 09:37:44;;;;;;;6.25;4.55;;;;;;;;;;1871429;75;21454;-46
2021/09/05 09:40:14;;;;;;;7.92;5.08;;;;;;;;;;1871207;76;21097;-50
2021/09/05 09:42:42;;;;;;;10.60;5.33;;;;;;;;;;1870564;76;21074;-50
2021/09/05 09:45:13;;;;;;;7.30;4.78;;;;;;;;;;1871335;77;21039;-46
2021/09/05 09:47:46;;;;;;;8.43;4.90;;;;;;;;;;1871286;77;21411;-49
2021/09/05 09:50:15;;;;;;;9.25;5.30;;;;;;;;;;1871288;77;21027;-47
2021/09/05 09:52:44;;;;;;;7.40;4.78;;;;;;;;;;1871233;77;21418;-49
2021/09/05 09:55:13;;;;;;;7.25;5.42;;;;;;;;;;1871289;77;21117;-48
2021/09/05 09:57:42;;;;;;;7.00;4.80;;;;;;;;;;1871385;77;21036;-48
2021/09/05 10:00:11;;;;;;;7.35;4.97;;;;;;;;;;1871312;77;21020;-47
2021/09/05 10:02:42;;;;;;;8.13;5.08;;;;;;;;;;1871357;77;21078;-50
2021/09/05 10:05:13;;;;;;;5.35;4.15;;;;;;;;;;1871394;77;21509;-50
2021/09/05 10:07:47;;;;;;;6.62;5.08;;;;;;;;;;1871212;76;21043;-49
2021/09/05 10:10:14;;;;;;;7.85;4.75;;;;;;;;;;1871049;76;21478;-46
2021/09/05 10:12:43;;;;;;;6.15;4.08;;;;;;;;;;1871170;75;21043;-49
2021/09/05 10:15:13;;;;;;;8.35;4.08;;;;;;;;;;1871224;77;21028;-47
2021/09/05 10:17:42;;;;;;;8.28;4.55;;;;;;;;;;1871232;77;21047;-47
2021/09/05 10:20:11;;;;;;;5.33;4.08;;;;;;;;;;1871262;77;21141;-50
2021/09/05 10:22:40;;;;;;;7.62;4.40;;;;;;;;;;1871210;77;21015;-49
2021/09/05 10:25:09;;;;;;;7.72;4.75;;;;;;;;;;1871235;77;21074;-49
2021/09/05 10:27:39;;;;;;;6.58;4.35;;;;;;;;;;1871287;77;21068;-47
2021/09/05 10:30:11;;;;;;;7.28;4.15;;;;;;;;;;1871329;75;21000;-47
2021/09/05 10:32:51;;;;;;;5.08;3.42;;;;;;;;;;1871202;77;21079;-50
2021/09/05 10:35:33;;;;;;;5.08;3.95;;;;;;;;;;1871335;77;21024;-47
2021/09/05 10:38:14;;;;;;;5.25;3.62;;;;;;;;;;1871653;77;21004;-49
2021/09/05 10:40:43;;;;;;;7.75;4.78;;;;;;;;;;1871593;77;21545;-47
2021/09/05 10:43:12;;;;;;;6.20;3.83;;;;;;;;;;1871443;76;21094;-49
2021/09/05 10:45:42;;;;;;;5.97;4.45;;;;;;;;;;1871590;77;21043;-46
2021/09/05 10:48:21;;;;;;;9.53;4.90;;;;;;;;;;1871458;75;21524;-48
2021/09/05 10:50:53;;;;;;;7.55;4.00;;;;;;;;;;1851945;76;21108;-49
2021/09/05 10:53:27;;;;;;;7.72;4.50;;;;;;;;;;1871658;76;21035;-48
2021/09/05 10:56:09;;;;;;;5.42;4.20;;;;;;;;;;1871326;76;21117;-49
2021/09/05 10:58:39;;;;;;;5.20;3.30;;;;;;;;;;1871603;77;21055;-48
2021/09/05 11:01:12;;;;;;;6.20;4.12;;;;;;;;;;1871652;77;21030;-47
2021/09/05 11:03:58;;;;;;;6.10;4.25;;;;;;;;;;1871614;77;21150;-46
2021/09/05 11:06:42;;;;;;;7.53;4.70;;;;;;;;;;1871478;77;21113;-48
2021/09/05 11:09:22;;;;;;;4.78;3.58;;;;;;;;;;1871330;76;21109;-49
2021/09/05 11:12:11;;;;;;;5.75;4.12;;;;;;;;;;1871576;77;21089;-47
2021/09/05 11:14:45;;;;;;;7.58;4.12;;;;;;;;;;1871417;77;21075;-49
2021/09/05 11:17:12;;;;;;;5.85;3.98;;;;;;;;;;1871549;76;21497;-48
2021/09/05 11:19:57;;;;;;;6.80;4.33;;;;;;;;;;1871511;77;21047;-47
2021/09/05 11:22:27;;;;;;;6.55;4.03;;;;;;;;;;1871660;77;21122;-49
2021/09/05 11:25:14;;;;;;;6.55;4.60;;;;;;;;;;1871493;76;21035;-48
2021/09/05 11:27:57;;;;;;;5.50;4.05;;;;;;;;;;1871485;77;21117;-50
2021/09/05 11:30:28;;;;;;;6.05;4.28;;;;;;;;;;1871618;77;21055;-51
2021/09/05 11:32:58;;;;;;;5.08;3.55;;;;;;;;;;1871628;77;21024;-50
2021/09/05 11:35:28;;;;;;;5.53;4.60;;;;;;;;;;1871655;76;21458;-51
2021/09/05 11:37:57;;;;;;;5.65;3.87;;;;;;;;;;1871549;76;21117;-50
2021/09/05 11:40:27;;;;;;;8.05;4.55;;;;;;;;;;1871509;75;21027;-47
2021/09/05 11:42:56;;;;;;;8.55;4.70;;;;;;;;;;1871423;77;21035;-47
2021/09/05 11:45:27;;;;;;;6.20;4.00;;;;;;;;;;1871359;77;21050;-48
2021/09/05 11:47:59;;;;;;;8.18;4.03;;;;;;;;;;1871422;76;21121;-48
2021/09/05 11:50:29;;;;;;;4.60;3.67;;;;;;;;;;1871298;77;21027;-51
2021/09/05 11:52:58;;;;;;;6.37;3.77;;;;;;;;;;1871292;77;21032;-48
2021/09/05 11:55:27;;;;;;;5.70;3.45;;;;;;;;;;1871243;77;21029;-51
2021/09/05 11:57:59;;;;;;;5.60;3.72;;;;;;;;;;1871319;77;21016;-48
2021/09/05 12:00:37;;;;;;;6.08;4.12;;;;;;;;;;1871393;77;21094;-47
2021/09/05 12:03:07;;;;;;;7.12;4.60;;;;;;;;;;1871307;77;21082;-47
2021/09/05 12:05:40;;;;;;;8.00;4.10;;;;;;;;;;1871366;77;21031;-50
2021/09/05 12:08:10;;;;;;;6.87;4.67;;;;;;;;;;1871282;77;21097;-50
2021/09/05 12:10:40;;;;;;;6.30;4.58;;;;;;;;;;1871307;77;21048;-49
2021/09/05 12:13:10;;;;;;;6.12;4.08;;;;;;;;;;1871347;77;21028;-49
2021/09/05 12:15:43;;;;;;;5.85;3.75;;;;;;;;;;1871231;76;21489;-49
2021/09/05 12:18:19;;;;;;;6.37;3.87;;;;;;;;;;1871276;77;21023;-48
2021/09/05 12:20:52;;;;;;;5.70;3.50;;;;;;;;;;1871468;77;21032;-50
2021/09/05 12:23:29;;;;;;;5.60;3.58;;;;;;;;;;1871309;75;21117;-47
2021/09/05 12:26:03;;;;;;;4.92;3.67;;;;;;;;;;1871034;75;21591;-50
2021/09/05 12:28:33;;;;;;;5.10;3.27;;;;;;;;;;1871242;77;21031;-47
2021/09/05 12:31:06;;;;;;;4.60;3.80;;;;;;;;;;1871177;77;21040;-48
2021/09/05 12:33:38;;;;;;;5.10;3.02;;;;;;;;;;1871390;76;21066;-50
2021/09/05 12:36:14;;;;;;;5.10;3.33;;;;;;;;;;1871506;77;21086;-49
2021/09/05 12:38:46;;;;;;;6.55;3.58;;;;;;;;;;1871252;76;21075;-49
2021/09/05 12:41:15;;;;;;;7.15;2.95;;;;;;;;;;1869835;76;21023;-49
2021/09/05 12:43:49;;;;;;;5.33;3.17;;;;;;;;;;1871356;77;21039;-50
2021/09/05 12:46:20;;;;;;;5.33;3.00;;;;;;;;;;1871426;77;21020;-47
2021/09/05 12:48:50;;;;;;;4.37;3.12;;;;;;;;;;1871251;77;21077;-50
2021/09/05 12:51:20;;;;;;;5.80;3.37;;;;;;;;;;1871401;77;21031;-50
2021/09/05 12:53:55;;;;;;;2.45;2.22;;;;;;;;;;1871239;76;21477;-50
2021/09/05 12:56:24;;;;;;;4.80;2.90;;;;;;;;;;1871324;77;21028;-48
2021/09/05 12:58:54;;;;;;;5.12;2.92;;;;;;;;;;1871192;77;21093;-47
2021/09/05 13:01:25;;;;;;;6.78;3.02;;;;;;;;;;1871211;75;21027;-50
2021/09/05 13:03:54;;;;;;;5.30;3.55;;;;;;;;;;1871310;76;21169;-47
2021/09/05 13:06:24;;;;;;;4.17;2.60;;;;;;;;;;1871250;77;21032;-49
2021/09/05 13:08:54;;;;;;;3.62;2.67;;;;;;;;;;1871160;77;21105;-47
2021/09/05 13:11:25;;;;;;;4.95;2.50;;;;;;;;;;1871386;77;21031;-48
2021/09/05 13:13:55;;;;;;;3.25;2.77;;;;;;;;;;1871458;77;21023;-47
2021/09/05 13:16:24;;;;;;;4.03;3.35;;;;;;;;;;1871213;77;21144;-48
2021/09/05 13:18:53;;;;;;;4.78;3.25;;;;;;;;;;1871216;76;21036;-47
2021/09/05 13:21:23;;;;;;;3.98;2.83;;;;;;;;;;1871416;77;21043;-49
2021/09/05 13:23:52;;;;;;;5.08;3.27;;;;;;;;;;1871186;75;21031;-49
2021/09/05 13:26:24;;;;;;;3.58;2.52;;;;;;;;;;1871285;77;21547;-47
2021/09/05 13:28:53;;;;;;;4.30;2.72;;;;;;;;;;1871263;77;21028;-47
2021/09/05 13:31:25;;;;;;;4.75;2.92;;;;;;;;;;1871180;76;21121;-49
2021/09/05 13:33:55;;;;;;;3.65;2.20;;;;;;;;;;1871288;75;21144;-49
2021/09/05 13:36:25;;;;;;;4.53;3.50;;;;;;;;;;1871182;76;21063;-48
2021/09/05 13:38:55;;;;;;;4.10;2.77;;;;;;;;;;1886902;75;21072;-50
2021/09/05 13:41:24;;;;;;;7.08;2.92;;;;;;;;;;1890045;76;21035;-49
2021/09/05 13:43:54;;;;;;;5.87;2.85;;;;;;;;;;1890010;76;21026;-50
2021/09/05 13:46:23;;;;;;;6.42;3.50;;;;;;;;;;1890059;76;21043;-49
2021/09/05 13:48:52;;;;;;;4.17;2.92;;;;;;;;;;1889964;76;21022;-50
2021/09/05 13:51:21;;;;;;;4.65;3.20;;;;;;;;;;1890113;76;21058;-48
2021/09/05 13:53:51;;;;;;;10.78;4.40;;;;;;;;;;1889917;76;21097;-47
2021/09/05 13:56:20;;;;;;;6.00;3.35;;;;;;;;;;1890000;76;21043;-47
2021/09/05 13:58:49;;;;;;;5.05;3.25;;;;;;;;;;1889985;76;21098;-48
2021/09/05 14:01:18;;;;;;;6.35;3.60;;;;;;;;;;1890159;76;21039;-49
2021/09/05 14:03:48;;;;;;;5.60;3.02;;;;;;;;;;1890131;76;21043;-50
2021/09/05 14:06:16;;;;;;;4.15;3.30;;;;;;;;;;1889934;76;21038;-51
2021/09/05 14:08:45;;;;;;;4.90;3.20;;;;;;;;;;1890103;75;21058;-48
2021/09/05 14:11:17;;;;;;;4.53;3.10;;;;;;;;;;1890146;76;21039;-50
2021/09/05 14:13:45;;;;;;;3.92;3.37;;;;;;;;;;1890070;76;21540;-50
2021/09/05 14:16:15;;;;;;;4.22;3.33;;;;;;;;;;1890062;76;21530;-51
2021/09/05 14:18:44;;;;;;;5.37;3.40;;;;;;;;;;1889989;76;21105;-51
2021/09/05 14:21:14;;;;;;;5.28;4.22;;;;;;;;;;1890059;76;21015;-50
2021/09/05 14:23:42;;;;;;;5.85;3.72;;;;;;;;;;1889932;76;21034;-52
2021/09/05 14:26:15;;;;;;;5.65;3.75;;;;;;;;;;1889917;76;21062;-49
2021/09/05 14:28:47;;;;;;;5.28;4.58;;;;;;;;;;1890111;75;21031;-49
2021/09/05 14:34:08;;;;;;;6.50;4.00;;;;;;;;;;1889787;75;21493;-50
2021/09/05 14:47:55;;;;;;;4.97;3.70;;;;;;;;;;1889961;75;21190;-51
2021/09/05 14:50:21;;;;;;;6.53;4.20;;;;;;;;;;1889962;76;21043;-48
2021/09/05 14:55:31;;;;;;;7.17;4.33;;;;;;;;;;1889933;76;21077;-49
2021/09/05 14:58:03;;;;;;;4.45;3.45;;;;;;;;;;1889961;76;21074;-51
2021/09/05 15:00:34;;;;;;;4.62;3.40;;;;;;;;;;1889882;76;21033;-48
2021/09/05 15:03:10;;;;;;;3.12;2.83;;;;;;;;;;1889898;76;21006;-49
2021/09/05 15:05:44;;;;;;;4.12;3.30;;;;;;;;;;1890108;75;21530;-50
2021/09/05 15:11:02;;;;;;;5.47;3.35;;;;;;;;;;1889901;76;21066;-50
2021/09/05 15:13:28;;;;;;;5.17;3.87;;;;;;;;;;1889712;75;21192;-51
2021/09/05 15:15:57;;;;;;;4.37;3.12;;;;;;;;;;1889820;76;21468;-51
2021/09/05 15:18:33;;;;;;;6.53;3.47;;;;;;;;;;1889923;76;21055;-51
2021/09/05 15:21:03;;;;;;;6.67;3.67;;;;;;;;;;1890071;76;21062;-51
2021/09/05 15:23:39;;;;;;;5.47;3.67;;;;;;;;;;1889885;76;21132;-50
2021/09/05 15:26:02;;;;;;;7.08;3.92;;;;;;;;;;1890046;75;22201;-48
2021/09/05 15:28:39;;;;;;;4.53;3.02;;;;;;;;;;1890015;76;21314;-50